Time;durP1;ratioP1;P1;durP2;ratioP2;P2;SDS_P1;SDS_P2;PMS_P1;PMS_P2;Temp;Humidity;BMP_temperature;BMP_pressure;BME280_temperature;BME280_humidity;BME280_pressure;Samples;Min_cycle;Max_cycle;Signal;HPM_P1;HPM_P2
2022/01/10 00:01:37;;;;;;;45.35;17.38;;;;;;;;;;5041964;28;20093;-79
2022/01/10 00:04:03;;;;;;;45.42;17.33;;;;;;;;;;5041212;28;20037;-77
2022/01/10 00:06:29;;;;;;;38.28;16.35;;;;;;;;;;5042278;28;20048;-78
2022/01/10 00:08:55;;;;;;;38.63;16.05;;;;;;;;;;5042082;28;20033;-77
2022/01/10 00:11:21;;;;;;;37.53;16.42;;;;;;;;;;5042414;28;20053;-78
2022/01/10 00:13:49;;;;;;;38.83;16.70;;;;;;;;;;5058769;28;20044;-78
2022/01/10 00:16:15;;;;;;;37.20;16.38;;;;;;;;;;5029899;28;20068;-84
2022/01/10 00:18:41;;;;;;;38.67;17.73;;;;;;;;;;5046166;28;20067;-81
2022/01/10 00:21:07;;;;;;;38.03;17.00;;;;;;;;;;5041810;28;20368;-79
2022/01/10 00:23:34;;;;;;;37.50;16.95;;;;;;;;;;5042720;28;20037;-78
2022/01/10 00:26:01;;;;;;;49.20;18.58;;;;;;;;;;5029946;28;20037;-82
2022/01/10 00:28:27;;;;;;;44.45;19.27;;;;;;;;;;5026635;28;20123;-79
2022/01/10 00:30:53;;;;;;;41.30;18.90;;;;;;;;;;5048073;28;20049;-81
2022/01/10 00:33:19;;;;;;;43.80;18.92;;;;;;;;;;5052835;28;20036;-84
2022/01/10 00:35:45;;;;;;;48.25;18.33;;;;;;;;;;5029725;28;20036;-83
2022/01/10 00:38:11;;;;;;;46.10;19.45;;;;;;;;;;5043571;28;20067;-78
2022/01/10 00:40:37;;;;;;;44.78;18.88;;;;;;;;;;5025498;28;20508;-78
2022/01/10 00:43:04;;;;;;;42.03;18.90;;;;;;;;;;5024139;28;20440;-78
2022/01/10 00:45:30;;;;;;;50.67;19.38;;;;;;;;;;5041905;28;20049;-78
2022/01/10 00:47:57;;;;;;;45.35;19.88;;;;;;;;;;5041522;28;20037;-79
2022/01/10 00:50:24;;;;;;;49.08;19.98;;;;;;;;;;5038302;28;20114;-79
2022/01/10 00:52:50;;;;;;;38.33;18.23;;;;;;;;;;5039003;28;20041;-78
2022/01/10 00:55:16;;;;;;;42.92;19.08;;;;;;;;;;5039392;28;20041;-78
2022/01/10 00:57:42;;;;;;;38.03;18.42;;;;;;;;;;5041076;28;20461;-82
2022/01/10 01:00:09;;;;;;;37.72;18.13;;;;;;;;;;5041095;28;20069;-84
2022/01/10 01:02:35;;;;;;;47.75;20.63;;;;;;;;;;5041443;28;20103;-83
2022/01/10 01:05:04;;;;;;;43.22;20.67;;;;;;;;;;5041025;28;20037;-83
2022/01/10 01:07:30;;;;;;;42.28;21.08;;;;;;;;;;5040756;28;20094;-83
2022/01/10 01:10:21;;;;;;;36.72;19.75;;;;;;;;;;5042982;28;20052;-82
2022/01/10 01:15:26;;;;;;;50.03;21.95;;;;;;;;;;5042742;28;20449;-81
2022/01/10 01:20:43;;;;;;;43.33;20.92;;;;;;;;;;5056564;28;20052;-80
2022/01/10 01:26:02;;;;;;;43.13;20.60;;;;;;;;;;5043027;28;20037;-81
2022/01/10 01:28:28;;;;;;;49.40;21.30;;;;;;;;;;5044546;28;20044;-81
2022/01/10 01:30:54;;;;;;;53.30;23.38;;;;;;;;;;5042335;28;20041;-83
2022/01/10 01:33:20;;;;;;;48.83;22.85;;;;;;;;;;5023674;28;20093;-83
2022/01/10 01:35:47;;;;;;;50.55;24.02;;;;;;;;;;5044184;28;20127;-82
2022/01/10 01:38:13;;;;;;;52.97;24.05;;;;;;;;;;5043776;28;20055;-82
2022/01/10 01:40:46;;;;;;;61.85;26.63;;;;;;;;;;5040485;28;20072;-81
2022/01/10 01:43:12;;;;;;;66.60;28.63;;;;;;;;;;5042215;28;20342;-83
2022/01/10 01:45:42;;;;;;;74.70;28.30;;;;;;;;;;5042118;28;20057;-82
2022/01/10 01:48:08;;;;;;;65.82;29.45;;;;;;;;;;5025254;28;20044;-83
2022/01/10 01:50:34;;;;;;;62.25;29.73;;;;;;;;;;5041411;28;20057;-81
2022/01/10 01:53:00;;;;;;;64.07;27.90;;;;;;;;;;5042055;28;20037;-84
2022/01/10 01:55:26;;;;;;;60.50;25.23;;;;;;;;;;5042082;28;20053;-84
2022/01/10 01:57:52;;;;;;;58.10;26.23;;;;;;;;;;5024725;28;20041;-82
2022/01/10 02:00:19;;;;;;;51.72;24.92;;;;;;;;;;5024336;28;20458;-82
2022/01/10 02:02:49;;;;;;;69.63;30.17;;;;;;;;;;5044930;28;20073;-79
2022/01/10 02:05:15;;;;;;;71.78;31.52;;;;;;;;;;5041982;28;20037;-77
2022/01/10 02:07:41;;;;;;;67.25;32.35;;;;;;;;;;5028006;28;20052;-78
2022/01/10 02:10:07;;;;;;;82.10;33.10;;;;;;;;;;5036401;28;20037;-78
2022/01/10 02:12:33;;;;;;;63.47;29.83;;;;;;;;;;5019749;28;20068;-79
2022/01/10 02:14:59;;;;;;;66.55;31.27;;;;;;;;;;5022725;28;20042;-84
2022/01/10 02:17:34;;;;;;;70.60;30.90;;;;;;;;;;5024274;28;20076;-84
2022/01/10 02:20:00;;;;;;;83.60;33.03;;;;;;;;;;5029987;28;20052;-78
2022/01/10 02:22:26;;;;;;;72.25;32.33;;;;;;;;;;5024109;28;20116;-83
2022/01/10 02:24:53;;;;;;;72.25;32.53;;;;;;;;;;5025033;28;20117;-84
2022/01/10 02:27:21;;;;;;;77.20;31.05;;;;;;;;;;5040459;28;20033;-82
2022/01/10 02:29:47;;;;;;;74.00;33.10;;;;;;;;;;5040164;28;20120;-79
2022/01/10 02:32:13;;;;;;;100.50;40.75;;;;;;;;;;5041538;28;20076;-83
2022/01/10 02:34:39;;;;;;;89.68;38.85;;;;;;;;;;5022775;28;20072;-77
2022/01/10 02:37:05;;;;;;;85.22;38.13;;;;;;;;;;5019445;28;20037;-79
2022/01/10 02:39:31;;;;;;;78.47;38.25;;;;;;;;;;5020992;28;20354;-83
2022/01/10 02:41:57;;;;;;;87.20;38.33;;;;;;;;;;5040720;28;20041;-79
2022/01/10 02:44:23;;;;;;;92.63;39.58;;;;;;;;;;5026450;28;20116;-78
2022/01/10 02:46:50;;;;;;;97.47;39.35;;;;;;;;;;5036675;28;20038;-78
2022/01/10 02:49:16;;;;;;;109.78;42.75;;;;;;;;;;5042598;28;20049;-78
2022/01/10 02:51:42;;;;;;;93.28;38.28;;;;;;;;;;5073246;28;20097;-77
2022/01/10 02:54:08;;;;;;;88.32;39.03;;;;;;;;;;5053129;28;20120;-82
2022/01/10 02:56:35;;;;;;;91.35;39.08;;;;;;;;;;5039975;28;20056;-82
2022/01/10 02:59:01;;;;;;;77.07;36.08;;;;;;;;;;5061509;28;20086;-84
2022/01/10 03:01:27;;;;;;;93.10;39.83;;;;;;;;;;5044180;28;20056;-84
2022/01/10 03:03:53;;;;;;;93.20;40.08;;;;;;;;;;5022366;28;20037;-78
2022/01/10 03:06:19;;;;;;;101.65;42.40;;;;;;;;;;5045241;28;20037;-79
2022/01/10 03:08:45;;;;;;;85.97;38.92;;;;;;;;;;5027244;28;20066;-80
2022/01/10 03:11:11;;;;;;;87.22;41.63;;;;;;;;;;5029631;28;20075;-84
2022/01/10 03:13:37;;;;;;;108.45;43.95;;;;;;;;;;5029198;28;20045;-79
2022/01/10 03:16:03;;;;;;;99.10;40.42;;;;;;;;;;5043509;28;20045;-77
2022/01/10 03:18:29;;;;;;;84.15;40.88;;;;;;;;;;5043601;28;20069;-79
2022/01/10 03:20:55;;;;;;;90.78;39.50;;;;;;;;;;5025903;28;20123;-78
2022/01/10 03:23:21;;;;;;;86.63;39.60;;;;;;;;;;5025932;28;20087;-78
2022/01/10 03:25:47;;;;;;;103.72;43.40;;;;;;;;;;5045941;28;20041;-83
2022/01/10 03:28:15;;;;;;;94.53;40.97;;;;;;;;;;5029862;28;20069;-82
2022/01/10 03:30:41;;;;;;;72.03;37.83;;;;;;;;;;5044801;28;20052;-78
2022/01/10 03:33:08;;;;;;;72.53;36.45;;;;;;;;;;5026368;28;20051;-78
2022/01/10 03:35:34;;;;;;;77.85;36.00;;;;;;;;;;5048351;28;20037;-82
2022/01/10 03:38:00;;;;;;;76.75;37.13;;;;;;;;;;5075650;28;20072;-78
2022/01/10 03:40:28;;;;;;;88.15;39.20;;;;;;;;;;5063174;28;20041;-77
2022/01/10 03:42:54;;;;;;;81.68;38.53;;;;;;;;;;5043820;28;20463;-78
2022/01/10 03:45:20;;;;;;;90.63;40.45;;;;;;;;;;5042558;28;20033;-78
2022/01/10 03:47:46;;;;;;;90.90;39.55;;;;;;;;;;5060329;28;20230;-79
2022/01/10 03:50:12;;;;;;;84.70;38.35;;;;;;;;;;5026940;28;20431;-78
2022/01/10 03:52:38;;;;;;;81.78;38.72;;;;;;;;;;5043881;28;20041;-84
2022/01/10 03:55:04;;;;;;;94.70;40.92;;;;;;;;;;5064498;28;20112;-83
2022/01/10 03:57:30;;;;;;;83.43;38.70;;;;;;;;;;5031776;28;20032;-83
2022/01/10 03:59:56;;;;;;;84.88;38.10;;;;;;;;;;5047026;28;20427;-83
2022/01/10 04:02:24;;;;;;;85.75;40.22;;;;;;;;;;5062412;28;20511;-79
2022/01/10 04:04:51;;;;;;;99.30;41.78;;;;;;;;;;5042450;28;20067;-78
2022/01/10 04:07:18;;;;;;;94.28;41.05;;;;;;;;;;5025505;28;20527;-79
2022/01/10 04:09:44;;;;;;;89.90;40.50;;;;;;;;;;5025577;28;20029;-78
2022/01/10 04:12:10;;;;;;;85.20;40.25;;;;;;;;;;5041691;28;20425;-78
2022/01/10 04:14:36;;;;;;;97.45;41.78;;;;;;;;;;5045225;28;20037;-78
2022/01/10 04:17:02;;;;;;;84.53;39.95;;;;;;;;;;5067769;28;20037;-80
2022/01/10 04:19:28;;;;;;;85.07;39.42;;;;;;;;;;5037329;28;20041;-78
2022/01/10 04:21:54;;;;;;;88.70;41.10;;;;;;;;;;5037749;28;20091;-78
2022/01/10 04:24:20;;;;;;;88.20;40.00;;;;;;;;;;5057054;28;20041;-83
2022/01/10 04:26:46;;;;;;;96.00;42.75;;;;;;;;;;5043648;28;20029;-77
2022/01/10 04:29:12;;;;;;;96.25;43.13;;;;;;;;;;5039060;28;20041;-78
2022/01/10 04:31:38;;;;;;;101.03;42.83;;;;;;;;;;5027443;28;20052;-79
2022/01/10 04:34:04;;;;;;;90.15;41.35;;;;;;;;;;5040908;28;20116;-78
2022/01/10 04:36:30;;;;;;;85.45;41.90;;;;;;;;;;5040931;28;20110;-77
2022/01/10 04:38:56;;;;;;;93.57;42.00;;;;;;;;;;5041980;28;20399;-78
2022/01/10 04:41:22;;;;;;;104.07;46.58;;;;;;;;;;5043690;28;20044;-79
2022/01/10 04:43:48;;;;;;;106.10;43.08;;;;;;;;;;5068440;28;20127;-77
2022/01/10 04:46:14;;;;;;;99.15;44.00;;;;;;;;;;5046542;28;20436;-79
2022/01/10 04:48:40;;;;;;;87.30;41.42;;;;;;;;;;5045592;28;20037;-77
2022/01/10 04:51:16;;;;;;;94.00;41.95;;;;;;;;;;5053247;28;20048;-78
2022/01/10 04:53:44;;;;;;;97.43;44.30;;;;;;;;;;5034488;28;20113;-77
2022/01/10 04:56:10;;;;;;;108.03;45.75;;;;;;;;;;5029428;28;20045;-78
2022/01/10 04:58:36;;;;;;;112.72;48.97;;;;;;;;;;5043078;28;20037;-79
2022/01/10 05:01:03;;;;;;;107.22;46.53;;;;;;;;;;5025584;28;20045;-78
2022/01/10 05:03:29;;;;;;;95.88;45.70;;;;;;;;;;5044203;28;20040;-82
2022/01/10 05:05:55;;;;;;;104.88;49.90;;;;;;;;;;5028930;28;20037;-82
2022/01/10 05:08:21;;;;;;;124.05;53.45;;;;;;;;;;5029460;28;20048;-83
2022/01/10 05:10:50;;;;;;;136.18;55.53;;;;;;;;;;5047120;28;20044;-82
2022/01/10 05:13:17;;;;;;;123.68;54.75;;;;;;;;;;5075107;28;20044;-83
2022/01/10 05:15:46;;;;;;;133.57;58.30;;;;;;;;;;5040232;28;20033;-83
2022/01/10 05:18:12;;;;;;;131.75;58.53;;;;;;;;;;5062274;28;20033;-83
2022/01/10 05:20:38;;;;;;;143.60;59.03;;;;;;;;;;5062573;28;20093;-85
2022/01/10 05:23:04;;;;;;;142.30;61.88;;;;;;;;;;5062664;28;20047;-83
2022/01/10 05:25:32;;;;;;;130.90;57.80;;;;;;;;;;5029257;28;20037;-82
2022/01/10 05:27:58;;;;;;;143.02;54.90;;;;;;;;;;5028912;28;20037;-83
2022/01/10 05:30:24;;;;;;;136.20;57.78;;;;;;;;;;5061363;28;20064;-82
2022/01/10 05:32:50;;;;;;;115.95;54.40;;;;;;;;;;5028731;28;20360;-81
2022/01/10 05:35:16;;;;;;;120.70;53.47;;;;;;;;;;5033888;28;20120;-81
2022/01/10 05:37:42;;;;;;;114.43;53.58;;;;;;;;;;5045338;28;20053;-81
2022/01/10 05:40:08;;;;;;;123.78;53.42;;;;;;;;;;5028302;28;20037;-81
2022/01/10 05:42:34;;;;;;;113.03;51.95;;;;;;;;;;5045528;28;20041;-81
2022/01/10 05:45:02;;;;;;;125.93;52.10;;;;;;;;;;5027965;28;20033;-81
2022/01/10 05:47:28;;;;;;;125.15;54.47;;;;;;;;;;5042304;28;20096;-83
2022/01/10 05:50:00;;;;;;;108.00;50.72;;;;;;;;;;5042910;28;20083;-82
2022/01/10 05:52:26;;;;;;;106.78;51.03;;;;;;;;;;5043014;28;20071;-81
2022/01/10 05:54:52;;;;;;;108.82;52.60;;;;;;;;;;5026644;28;20041;-79
2022/01/10 05:57:18;;;;;;;106.88;49.35;;;;;;;;;;5042467;28;20048;-80
2022/01/10 05:59:44;;;;;;;113.50;51.03;;;;;;;;;;5027086;28;20077;-82
2022/01/10 06:02:10;;;;;;;129.77;57.78;;;;;;;;;;5063809;28;20437;-81
2022/01/10 06:04:36;;;;;;;111.63;55.78;;;;;;;;;;5027961;28;20186;-81
2022/01/10 06:07:02;;;;;;;103.32;50.70;;;;;;;;;;5043094;28;20033;-81
2022/01/10 06:09:28;;;;;;;99.97;48.10;;;;;;;;;;5029370;28;20090;-81
2022/01/10 06:11:54;;;;;;;99.10;48.53;;;;;;;;;;5026047;28;20037;-81
2022/01/10 06:14:20;;;;;;;120.47;54.42;;;;;;;;;;5043607;28;20045;-81
2022/01/10 06:16:50;;;;;;;114.60;53.85;;;;;;;;;;5067903;28;20045;-81
2022/01/10 06:19:16;;;;;;;105.82;49.47;;;;;;;;;;5046733;28;20052;-81
2022/01/10 06:21:42;;;;;;;108.72;49.63;;;;;;;;;;5043716;28;20068;-81
2022/01/10 06:24:08;;;;;;;111.72;48.72;;;;;;;;;;5028417;28;20037;-80
2022/01/10 06:26:34;;;;;;;97.28;46.50;;;;;;;;;;5053357;28;20029;-83
2022/01/10 06:29:00;;;;;;;88.68;43.75;;;;;;;;;;5045054;28;20068;-83
2022/01/10 06:31:26;;;;;;;93.90;45.13;;;;;;;;;;5043312;28;20260;-81
2022/01/10 06:33:52;;;;;;;88.82;42.97;;;;;;;;;;5026968;28;20126;-82
2022/01/10 06:36:19;;;;;;;84.97;42.80;;;;;;;;;;5041843;28;20040;-83
2022/01/10 06:38:45;;;;;;;85.13;42.60;;;;;;;;;;5045117;28;20067;-82
2022/01/10 06:41:11;;;;;;;85.45;41.72;;;;;;;;;;5031313;28;20045;-82
2022/01/10 06:43:39;;;;;;;95.50;43.67;;;;;;;;;;5053322;28;20041;-81
2022/01/10 06:46:08;;;;;;;87.78;44.08;;;;;;;;;;5073887;28;20417;-80
2022/01/10 06:48:34;;;;;;;95.93;43.10;;;;;;;;;;5053454;28;20125;-82
2022/01/10 06:51:00;;;;;;;97.68;45.78;;;;;;;;;;5033068;28;20056;-81
2022/01/10 06:53:26;;;;;;;91.68;44.42;;;;;;;;;;5030013;28;20045;-80
2022/01/10 06:55:52;;;;;;;92.95;44.90;;;;;;;;;;5047222;28;20037;-80
2022/01/10 06:58:18;;;;;;;88.45;42.33;;;;;;;;;;5027444;28;20404;-82
2022/01/10 07:00:44;;;;;;;94.72;43.63;;;;;;;;;;5044059;28;20047;-82
2022/01/10 07:03:10;;;;;;;91.30;45.55;;;;;;;;;;5029023;28;20080;-81
2022/01/10 07:05:36;;;;;;;84.68;42.50;;;;;;;;;;5046930;28;20360;-81
2022/01/10 07:08:03;;;;;;;100.45;46.20;;;;;;;;;;5045884;28;20073;-81
2022/01/10 07:10:29;;;;;;;109.80;45.30;;;;;;;;;;5032077;28;20441;-80
2022/01/10 07:12:55;;;;;;;107.32;47.85;;;;;;;;;;5047846;28;20084;-80
2022/01/10 07:15:25;;;;;;;104.13;45.38;;;;;;;;;;5035969;28;20114;-82
2022/01/10 07:17:52;;;;;;;107.80;45.95;;;;;;;;;;5051736;28;20052;-81
2022/01/10 07:20:18;;;;;;;96.22;44.88;;;;;;;;;;5033301;28;20109;-81
2022/01/10 07:22:44;;;;;;;106.50;46.10;;;;;;;;;;5026961;28;20037;-81
2022/01/10 07:25:10;;;;;;;102.40;47.95;;;;;;;;;;5061729;28;20033;-82
2022/01/10 07:27:36;;;;;;;111.53;47.35;;;;;;;;;;5044739;28;20041;-82
2022/01/10 07:30:04;;;;;;;103.40;46.15;;;;;;;;;;5048173;28;20033;-82
2022/01/10 07:32:30;;;;;;;103.63;47.17;;;;;;;;;;5031456;28;20036;-81
2022/01/10 07:34:57;;;;;;;112.57;47.97;;;;;;;;;;5034501;28;20045;-81
2022/01/10 07:37:23;;;;;;;111.45;48.65;;;;;;;;;;5048670;28;20436;-81
2022/01/10 07:39:49;;;;;;;109.60;47.72;;;;;;;;;;5028096;28;20040;-81
2022/01/10 07:42:16;;;;;;;111.20;46.63;;;;;;;;;;5043863;28;20076;-81
2022/01/10 07:44:42;;;;;;;97.45;44.88;;;;;;;;;;5065053;28;20047;-80
2022/01/10 07:47:08;;;;;;;107.57;45.22;;;;;;;;;;5031838;28;20045;-80
2022/01/10 07:49:34;;;;;;;104.35;44.55;;;;;;;;;;5030016;28;20139;-82
2022/01/10 07:52:00;;;;;;;105.72;45.92;;;;;;;;;;5060868;28;20037;-82
2022/01/10 07:54:26;;;;;;;99.32;45.00;;;;;;;;;;5034066;28;20120;-81
2022/01/10 07:56:52;;;;;;;88.25;41.15;;;;;;;;;;5026268;28;20064;-81
2022/01/10 07:59:19;;;;;;;97.10;43.45;;;;;;;;;;5044673;28;20059;-80
2022/01/10 08:01:47;;;;;;;92.22;43.28;;;;;;;;;;5029365;28;20174;-82
2022/01/10 08:04:13;;;;;;;101.85;45.22;;;;;;;;;;5046422;28;20037;-82
2022/01/10 08:06:39;;;;;;;94.50;45.67;;;;;;;;;;5045740;28;20048;-81
2022/01/10 08:09:06;;;;;;;109.25;46.88;;;;;;;;;;5028857;28;20095;-82
2022/01/10 08:11:32;;;;;;;99.65;44.58;;;;;;;;;;5047925;28;20064;-81
2022/01/10 08:13:58;;;;;;;109.70;45.95;;;;;;;;;;5046683;28;20095;-82
2022/01/10 08:16:25;;;;;;;108.95;47.83;;;;;;;;;;5030047;28;20037;-81
2022/01/10 08:18:52;;;;;;;102.88;47.83;;;;;;;;;;5069871;28;20056;-80
2022/01/10 08:21:18;;;;;;;97.15;48.13;;;;;;;;;;5046454;28;20045;-80
2022/01/10 08:23:44;;;;;;;103.47;46.65;;;;;;;;;;5045754;28;20044;-82
2022/01/10 08:26:10;;;;;;;113.72;47.70;;;;;;;;;;5045649;28;20792;-82
2022/01/10 08:28:36;;;;;;;98.50;46.90;;;;;;;;;;5029089;28;20041;-81
2022/01/10 08:31:02;;;;;;;99.18;47.40;;;;;;;;;;5046699;28;20041;-82
2022/01/10 08:33:28;;;;;;;105.93;47.65;;;;;;;;;;5046859;28;20548;-82
2022/01/10 08:35:54;;;;;;;105.57;47.17;;;;;;;;;;5046742;28;20064;-83
2022/01/10 08:38:21;;;;;;;98.82;46.10;;;;;;;;;;5029124;28;20048;-84
2022/01/10 08:40:47;;;;;;;90.88;43.70;;;;;;;;;;5045962;28;20055;-83
2022/01/10 08:43:16;;;;;;;98.95;46.60;;;;;;;;;;5029420;28;20043;-83
2022/01/10 08:45:44;;;;;;;107.38;45.33;;;;;;;;;;5054427;28;20137;-83
2022/01/10 08:48:10;;;;;;;110.30;49.00;;;;;;;;;;5050292;28;20033;-84
2022/01/10 08:50:40;;;;;;;111.45;47.38;;;;;;;;;;5055602;28;20445;-84
2022/01/10 08:53:07;;;;;;;101.15;45.17;;;;;;;;;;5046640;28;20429;-81
2022/01/10 08:55:33;;;;;;;106.43;46.60;;;;;;;;;;5061402;28;20037;-82
2022/01/10 08:58:00;;;;;;;94.65;44.70;;;;;;;;;;5045047;28;20049;-84
2022/01/10 09:00:26;;;;;;;107.88;49.25;;;;;;;;;;5029182;28;20037;-83
2022/01/10 09:02:52;;;;;;;103.45;47.47;;;;;;;;;;5030386;28;20076;-83
2022/01/10 09:05:18;;;;;;;107.03;47.25;;;;;;;;;;5045359;28;20124;-83
2022/01/10 09:07:44;;;;;;;104.63;45.42;;;;;;;;;;5028784;28;20045;-80
2022/01/10 09:10:10;;;;;;;114.28;46.88;;;;;;;;;;5029383;28;20033;-82
2022/01/10 09:12:38;;;;;;;111.35;46.60;;;;;;;;;;5028316;28;20468;-83
2022/01/10 09:15:06;;;;;;;100.57;45.10;;;;;;;;;;5033724;28;20037;-82
2022/01/10 09:17:32;;;;;;;92.63;42.97;;;;;;;;;;5069184;28;20041;-81
2022/01/10 09:19:58;;;;;;;91.22;43.50;;;;;;;;;;5033661;28;20044;-83
2022/01/10 09:22:24;;;;;;;96.38;41.30;;;;;;;;;;5032482;28;20139;-82
2022/01/10 09:24:50;;;;;;;93.50;40.97;;;;;;;;;;5028268;28;20342;-82
2022/01/10 09:27:16;;;;;;;97.63;42.70;;;;;;;;;;5029090;28;20072;-84
2022/01/10 09:29:42;;;;;;;100.72;40.75;;;;;;;;;;5045509;28;20048;-84
2022/01/10 09:32:09;;;;;;;102.68;42.67;;;;;;;;;;5029849;28;20123;-81
2022/01/10 09:34:35;;;;;;;98.25;41.63;;;;;;;;;;5046518;28;20064;-84
2022/01/10 09:37:01;;;;;;;85.10;41.80;;;;;;;;;;5046005;28;20032;-83
2022/01/10 09:39:27;;;;;;;96.53;42.30;;;;;;;;;;5029392;28;20070;-85
2022/01/10 09:41:53;;;;;;;93.90;41.60;;;;;;;;;;5031792;28;20052;-81
2022/01/10 09:44:21;;;;;;;94.63;40.83;;;;;;;;;;5050984;28;20053;-81
2022/01/10 09:46:48;;;;;;;96.75;40.38;;;;;;;;;;5054977;28;20044;-81
2022/01/10 09:49:15;;;;;;;87.25;39.20;;;;;;;;;;5055346;28;20048;-80
2022/01/10 09:51:41;;;;;;;85.20;40.38;;;;;;;;;;5054223;28;20029;-78
2022/01/10 09:54:07;;;;;;;95.78;39.80;;;;;;;;;;5052154;28;20053;-80
2022/01/10 09:56:33;;;;;;;96.55;39.80;;;;;;;;;;5041767;28;20092;-78
2022/01/10 09:59:01;;;;;;;86.05;40.13;;;;;;;;;;5043072;28;20064;-80
2022/01/10 10:01:28;;;;;;;85.82;38.13;;;;;;;;;;5043944;28;20045;-80
2022/01/10 10:03:58;;;;;;;88.38;39.35;;;;;;;;;;5037444;28;20036;-82
2022/01/10 10:06:24;;;;;;;94.50;41.05;;;;;;;;;;5047319;28;20101;-82
2022/01/10 10:08:51;;;;;;;94.95;39.72;;;;;;;;;;5029606;28;20045;-81
2022/01/10 10:11:17;;;;;;;88.25;40.67;;;;;;;;;;5029807;28;20441;-84
2022/01/10 10:13:44;;;;;;;92.30;39.83;;;;;;;;;;5031415;28;20025;-81
2022/01/10 10:16:14;;;;;;;95.88;40.63;;;;;;;;;;5049604;28;20033;-83
2022/01/10 10:18:47;;;;;;;99.75;41.45;;;;;;;;;;5073346;28;20106;-82
2022/01/10 10:21:14;;;;;;;91.55;39.53;;;;;;;;;;5070280;28;20047;-82
2022/01/10 10:23:40;;;;;;;91.47;38.83;;;;;;;;;;5030814;28;20067;-82
2022/01/10 10:26:06;;;;;;;97.40;39.47;;;;;;;;;;5029793;28;20037;-82
2022/01/10 10:28:35;;;;;;;85.82;38.85;;;;;;;;;;5044898;28;20084;-81
2022/01/10 10:31:01;;;;;;;91.18;38.97;;;;;;;;;;5028593;28;20412;-81
2022/01/10 10:33:27;;;;;;;83.93;34.88;;;;;;;;;;5064973;28;20079;-80
2022/01/10 10:36:07;;;;;;;79.25;32.50;;;;;;;;;;5046532;28;20059;-82
2022/01/10 10:38:33;;;;;;;79.18;33.88;;;;;;;;;;5051877;28;20041;-82
2022/01/10 10:41:03;;;;;;;84.75;33.88;;;;;;;;;;5047916;28;20045;-81
2022/01/10 10:43:32;;;;;;;78.65;36.35;;;;;;;;;;5065078;28;20067;-80
2022/01/10 10:46:12;;;;;;;74.03;33.95;;;;;;;;;;5053309;28;20365;-81
2022/01/10 10:48:40;;;;;;;79.68;31.77;;;;;;;;;;5057558;28;20047;-81
2022/01/10 10:51:09;;;;;;;72.88;32.85;;;;;;;;;;5070089;28;20076;-82
2022/01/10 10:53:35;;;;;;;71.13;29.75;;;;;;;;;;5029541;28;20102;-82
2022/01/10 10:56:02;;;;;;;77.13;32.33;;;;;;;;;;5029045;28;20045;-84
2022/01/10 10:58:28;;;;;;;73.60;32.92;;;;;;;;;;5066289;28;20045;-83
2022/01/10 11:00:55;;;;;;;70.50;31.60;;;;;;;;;;5045637;28;20467;-83
2022/01/10 11:03:21;;;;;;;72.10;29.95;;;;;;;;;;5045819;28;20041;-82
2022/01/10 11:05:48;;;;;;;73.18;32.08;;;;;;;;;;5031715;28;20079;-83
2022/01/10 11:08:14;;;;;;;82.65;35.72;;;;;;;;;;5031710;28;20033;-83
2022/01/10 11:10:40;;;;;;;73.10;33.83;;;;;;;;;;5031210;28;20041;-83
2022/01/10 11:13:06;;;;;;;79.50;34.33;;;;;;;;;;5030356;28;20041;-81
2022/01/10 11:15:38;;;;;;;72.97;32.22;;;;;;;;;;5029157;28;20060;-83
2022/01/10 11:18:07;;;;;;;68.97;33.47;;;;;;;;;;5070429;28;20040;-81
2022/01/10 11:20:44;;;;;;;69.82;30.58;;;;;;;;;;5071077;28;20071;-81
2022/01/10 11:23:11;;;;;;;74.10;30.15;;;;;;;;;;5073555;28;20032;-83
2022/01/10 11:25:39;;;;;;;58.92;28.08;;;;;;;;;;5046660;28;20127;-81
2022/01/10 11:28:23;;;;;;;70.78;27.50;;;;;;;;;;5031052;28;20036;-81
2022/01/10 11:30:51;;;;;;;;;;;;;;;;;;5050284;28;20479;-80
2022/01/10 11:33:17;;;;;;;68.95;28.20;;;;;;;;;;5067081;28;20259;-80
2022/01/10 11:35:44;;;;;;;61.95;27.42;;;;;;;;;;5046774;28;20505;-81
2022/01/10 11:38:16;;;;;;;64.53;27.65;;;;;;;;;;5029587;28;20485;-81
2022/01/10 11:40:42;;;;;;;61.70;26.77;;;;;;;;;;5045980;28;20045;-80
2022/01/10 11:43:08;;;;;;;61.20;26.67;;;;;;;;;;5046608;28;20037;-81
2022/01/10 11:45:41;;;;;;;61.72;26.80;;;;;;;;;;5045345;28;20044;-80
2022/01/10 11:48:14;;;;;;;61.28;25.50;;;;;;;;;;5037900;28;20044;-79
2022/01/10 11:50:46;;;;;;;62.30;24.35;;;;;;;;;;5040092;28;20057;-80
2022/01/10 11:53:13;;;;;;;57.23;25.43;;;;;;;;;;5069217;28;20044;-82
2022/01/10 11:55:43;;;;;;;57.45;24.77;;;;;;;;;;5030262;28;20120;-80
2022/01/10 11:58:16;;;;;;;54.38;23.05;;;;;;;;;;5030790;28;20037;-81
2022/01/10 12:00:42;;;;;;;57.97;23.00;;;;;;;;;;5047111;28;20041;-80
2022/01/10 12:03:08;;;;;;;54.85;22.50;;;;;;;;;;5062530;28;20044;-80
2022/01/10 12:05:34;;;;;;;60.47;22.00;;;;;;;;;;5046761;28;20116;-79
2022/01/10 12:08:03;;;;;;;57.22;23.05;;;;;;;;;;5063510;28;20033;-79
2022/01/10 12:10:29;;;;;;;44.85;19.60;;;;;;;;;;5046295;28;20071;-80
2022/01/10 12:13:06;;;;;;;50.05;19.15;;;;;;;;;;5038916;28;20033;-79
2022/01/10 12:15:36;;;;;;;49.75;19.92;;;;;;;;;;5042268;28;20033;-82
2022/01/10 12:18:02;;;;;;;55.30;19.75;;;;;;;;;;5062376;28;20025;-81
2022/01/10 12:20:28;;;;;;;41.00;18.02;;;;;;;;;;5061614;28;20028;-82
2022/01/10 12:22:57;;;;;;;46.65;17.40;;;;;;;;;;5062664;28;20088;-79
2022/01/10 12:25:24;;;;;;;43.72;17.13;;;;;;;;;;5046803;28;20052;-82
2022/01/10 12:27:51;;;;;;;46.95;17.70;;;;;;;;;;5046938;28;20036;-80
2022/01/10 12:30:17;;;;;;;38.97;16.58;;;;;;;;;;5047082;28;20055;-80
2022/01/10 12:32:43;;;;;;;42.60;16.13;;;;;;;;;;5063021;28;20105;-78
2022/01/10 12:35:10;;;;;;;39.28;16.08;;;;;;;;;;5046730;28;20029;-79
2022/01/10 12:37:36;;;;;;;34.78;15.05;;;;;;;;;;5063638;28;20025;-80
2022/01/10 12:40:03;;;;;;;38.03;15.32;;;;;;;;;;5040252;28;20045;-79
2022/01/10 12:42:29;;;;;;;38.28;13.52;;;;;;;;;;5054609;28;20120;-78
2022/01/10 12:44:55;;;;;;;36.80;13.77;;;;;;;;;;5057501;28;20033;-79
2022/01/10 12:47:21;;;;;;;36.78;13.95;;;;;;;;;;5043423;28;20057;-82
2022/01/10 12:49:47;;;;;;;36.58;14.20;;;;;;;;;;5040282;28;20064;-82
2022/01/10 12:52:13;;;;;;;38.58;13.43;;;;;;;;;;5058241;28;20045;-81
2022/01/10 12:54:39;;;;;;;35.83;13.27;;;;;;;;;;5059895;28;20034;-80
2022/01/10 12:57:06;;;;;;;31.38;13.93;;;;;;;;;;5059745;28;20085;-80
2022/01/10 12:59:33;;;;;;;32.13;11.45;;;;;;;;;;5059656;28;20033;-78
2022/01/10 13:02:00;;;;;;;28.70;11.35;;;;;;;;;;5058984;28;20034;-80
2022/01/10 13:04:27;;;;;;;27.23;10.75;;;;;;;;;;5043174;28;20032;-80
2022/01/10 13:06:53;;;;;;;36.78;12.15;;;;;;;;;;5034925;28;20045;-81
2022/01/10 13:09:19;;;;;;;31.55;10.30;;;;;;;;;;5027895;28;20051;-81
2022/01/10 13:11:48;;;;;;;29.95;11.60;;;;;;;;;;5043916;28;20037;-80
2022/01/10 13:14:17;;;;;;;34.00;10.82;;;;;;;;;;5046148;28;20033;-79
2022/01/10 13:17:07;;;;;;;36.25;11.65;;;;;;;;;;5045622;28;20038;-80
2022/01/10 13:19:57;;;;;;;38.47;11.45;;;;;;;;;;5051528;28;20093;-78
2022/01/10 13:22:24;;;;;;;34.80;13.07;;;;;;;;;;5050004;28;20419;-79
2022/01/10 13:24:51;;;;;;;34.45;12.43;;;;;;;;;;5041558;28;20042;-82
2022/01/10 13:27:22;;;;;;;30.85;12.10;;;;;;;;;;5041927;28;20139;-81
2022/01/10 13:29:49;;;;;;;32.47;11.98;;;;;;;;;;5042785;28;20049;-80
2022/01/10 13:32:26;;;;;;;38.83;12.55;;;;;;;;;;5024662;28;20067;-82
2022/01/10 13:34:53;;;;;;;45.03;15.23;;;;;;;;;;5024503;28;20052;-81
2022/01/10 13:37:38;;;;;;;35.67;14.95;;;;;;;;;;5041358;28;20037;-82
2022/01/10 13:40:07;;;;;;;34.33;14.00;;;;;;;;;;5040454;28;20069;-81
2022/01/10 13:42:40;;;;;;;38.55;14.05;;;;;;;;;;5039156;28;20121;-81
2022/01/10 13:45:06;;;;;;;38.67;14.63;;;;;;;;;;5023990;28;20044;-79
2022/01/10 13:47:55;;;;;;;37.55;13.30;;;;;;;;;;5044542;28;20048;-81
2022/01/10 13:50:22;;;;;;;32.72;13.82;;;;;;;;;;5049440;28;20053;-79
2022/01/10 13:53:00;;;;;;;33.42;14.35;;;;;;;;;;5044963;28;20103;-82
2022/01/10 13:55:26;;;;;;;31.88;13.05;;;;;;;;;;5041538;28;20048;-82
2022/01/10 13:57:52;;;;;;;34.70;12.48;;;;;;;;;;5024457;28;20429;-80
2022/01/10 14:00:19;;;;;;;35.53;12.95;;;;;;;;;;5042345;28;20446;-79
2022/01/10 14:02:45;;;;;;;36.22;14.25;;;;;;;;;;5023764;28;20055;-79
2022/01/10 14:05:32;;;;;;;33.88;13.23;;;;;;;;;;5025227;28;20041;-78
2022/01/10 14:08:02;;;;;;;37.95;12.73;;;;;;;;;;5050701;28;20093;-79
2022/01/10 14:10:28;;;;;;;32.17;13.70;;;;;;;;;;5057635;28;20055;-79
2022/01/10 14:12:54;;;;;;;34.92;12.07;;;;;;;;;;5037594;28;20041;-78
2022/01/10 14:15:30;;;;;;;33.17;12.45;;;;;;;;;;5040248;28;20041;-78
2022/01/10 14:18:00;;;;;;;31.50;12.35;;;;;;;;;;5039121;28;20041;-80
2022/01/10 14:20:28;;;;;;;33.35;12.45;;;;;;;;;;5036383;28;20085;-79
2022/01/10 14:22:54;;;;;;;32.80;12.05;;;;;;;;;;5027354;28;20037;-79